sensor_id;sensor_type;location;lat;lon;timestamp;P1;durP1;ratioP1;P2;durP2;ratioP2
38513;SDS011;24282;48.400;10.808;2023-05-19T00:01:39;5.70;;;2.37;;
38513;SDS011;24282;48.400;10.808;2023-05-19T00:04:08;4.97;;;2.40;;
38513;SDS011;24282;48.400;10.808;2023-05-19T00:06:36;5.50;;;2.03;;
38513;SDS011;24282;48.400;10.808;2023-05-19T00:09:03;4.07;;;2.10;;
38513;SDS011;24282;48.400;10.808;2023-05-19T00:11:32;5.70;;;2.70;;
38513;SDS011;24282;48.400;10.808;2023-05-19T00:14:00;5.33;;;2.63;;
38513;SDS011;24282;48.400;10.808;2023-05-19T00:16:26;4.27;;;2.30;;
38513;SDS011;24282;48.400;10.808;2023-05-19T00:18:53;6.07;;;2.37;;
38513;SDS011;24282;48.400;10.808;2023-05-19T00:21:21;5.13;;;2.27;;
38513;SDS011;24282;48.400;10.808;2023-05-19T00:23:46;4.33;;;2.13;;
38513;SDS011;24282;48.400;10.808;2023-05-19T00:26:12;4.40;;;2.23;;
38513;SDS011;24282;48.400;10.808;2023-05-19T00:28:49;4.60;;;2.20;;
38513;SDS011;24282;48.400;10.808;2023-05-19T00:31:15;4.00;;;2.13;;
38513;SDS011;24282;48.400;10.808;2023-05-19T00:33:41;4.80;;;2.40;;
38513;SDS011;24282;48.400;10.808;2023-05-19T00:36:07;2.97;;;1.60;;
38513;SDS011;24282;48.400;10.808;2023-05-19T00:38:34;5.17;;;2.50;;
38513;SDS011;24282;48.400;10.808;2023-05-19T00:41:01;3.43;;;2.07;;
38513;SDS011;24282;48.400;10.808;2023-05-19T00:43:28;3.67;;;1.90;;
38513;SDS011;24282;48.400;10.808;2023-05-19T00:45:54;4.00;;;2.20;;
38513;SDS011;24282;48.400;10.808;2023-05-19T00:48:21;4.60;;;2.23;;
38513;SDS011;24282;48.400;10.808;2023-05-19T00:50:47;5.57;;;2.40;;
38513;SDS011;24282;48.400;10.808;2023-05-19T00:53:16;3.43;;;2.10;;
38513;SDS011;24282;48.400;10.808;2023-05-19T00:55:43;3.73;;;2.13;;
38513;SDS011;24282;48.400;10.808;2023-05-19T00:58:10;5.30;;;2.10;;
38513;SDS011;24282;48.400;10.808;2023-05-19T01:00:37;4.40;;;2.30;;
38513;SDS011;24282;48.400;10.808;2023-05-19T01:03:04;4.60;;;2.33;;
38513;SDS011;24282;48.400;10.808;2023-05-19T01:05:38;5.03;;;2.40;;
38513;SDS011;24282;48.400;10.808;2023-05-19T01:08:10;5.93;;;2.42;;
38513;SDS011;24282;48.400;10.808;2023-05-19T01:10:36;6.40;;;2.43;;
38513;SDS011;24282;48.400;10.808;2023-05-19T01:13:02;5.67;;;2.33;;
38513;SDS011;24282;48.400;10.808;2023-05-19T01:15:28;6.47;;;2.80;;
38513;SDS011;24282;48.400;10.808;2023-05-19T01:18:31;5.53;;;2.10;;
38513;SDS011;24282;48.400;10.808;2023-05-19T01:24:23;4.37;;;2.33;;
38513;SDS011;24282;48.400;10.808;2023-05-19T01:32:33;4.47;;;2.65;;
38513;SDS011;24282;48.400;10.808;2023-05-19T01:35:00;6.67;;;2.30;;
38513;SDS011;24282;48.400;10.808;2023-05-19T01:37:29;4.77;;;2.10;;
38513;SDS011;24282;48.400;10.808;2023-05-19T01:39:56;5.17;;;2.30;;
38513;SDS011;24282;48.400;10.808;2023-05-19T01:42:22;5.33;;;2.00;;
38513;SDS011;24282;48.400;10.808;2023-05-19T01:44:49;3.53;;;2.00;;
38513;SDS011;24282;48.400;10.808;2023-05-19T01:47:16;4.73;;;2.40;;
38513;SDS011;24282;48.400;10.808;2023-05-19T01:49:42;5.83;;;2.60;;
38513;SDS011;24282;48.400;10.808;2023-05-19T01:52:08;7.27;;;2.10;;
38513;SDS011;24282;48.400;10.808;2023-05-19T01:54:33;6.73;;;2.50;;
38513;SDS011;24282;48.400;10.808;2023-05-19T01:57:03;4.87;;;2.27;;
38513;SDS011;24282;48.400;10.808;2023-05-19T02:03:04;5.07;;;2.03;;
38513;SDS011;24282;48.400;10.808;2023-05-19T02:08:29;4.37;;;2.30;;
38513;SDS011;24282;48.400;10.808;2023-05-19T02:11:06;5.47;;;2.27;;
38513;SDS011;24282;48.400;10.808;2023-05-19T02:13:43;5.43;;;2.33;;
38513;SDS011;24282;48.400;10.808;2023-05-19T02:16:14;4.10;;;2.40;;
38513;SDS011;24282;48.400;10.808;2023-05-19T02:18:41;3.57;;;1.80;;
38513;SDS011;24282;48.400;10.808;2023-05-19T02:21:10;4.43;;;2.20;;
38513;SDS011;24282;48.400;10.808;2023-05-19T02:23:38;4.23;;;2.13;;
38513;SDS011;24282;48.400;10.808;2023-05-19T02:26:06;5.67;;;2.70;;
38513;SDS011;24282;48.400;10.808;2023-05-19T02:28:33;3.53;;;2.30;;
38513;SDS011;24282;48.400;10.808;2023-05-19T02:30:59;5.87;;;2.50;;
38513;SDS011;24282;48.400;10.808;2023-05-19T02:33:27;4.77;;;2.37;;
38513;SDS011;24282;48.400;10.808;2023-05-19T02:35:54;6.23;;;2.47;;
38513;SDS011;24282;48.400;10.808;2023-05-19T02:38:21;3.70;;;2.17;;
38513;SDS011;24282;48.400;10.808;2023-05-19T02:40:47;5.23;;;2.67;;
38513;SDS011;24282;48.400;10.808;2023-05-19T02:43:15;4.93;;;2.40;;
38513;SDS011;24282;48.400;10.808;2023-05-19T02:45:41;5.57;;;2.60;;
38513;SDS011;24282;48.400;10.808;2023-05-19T02:48:06;4.27;;;2.03;;
38513;SDS011;24282;48.400;10.808;2023-05-19T02:50:32;5.90;;;2.53;;
38513;SDS011;24282;48.400;10.808;2023-05-19T02:52:58;6.60;;;2.57;;
38513;SDS011;24282;48.400;10.808;2023-05-19T02:55:23;4.13;;;2.40;;
38513;SDS011;24282;48.400;10.808;2023-05-19T02:57:49;5.47;;;2.50;;
38513;SDS011;24282;48.400;10.808;2023-05-19T03:00:15;5.23;;;2.40;;
38513;SDS011;24282;48.400;10.808;2023-05-19T03:02:42;4.43;;;2.03;;
38513;SDS011;24282;48.400;10.808;2023-05-19T03:05:08;4.83;;;2.43;;
38513;SDS011;24282;48.400;10.808;2023-05-19T03:07:35;4.20;;;2.10;;
38513;SDS011;24282;48.400;10.808;2023-05-19T03:10:00;5.37;;;2.67;;
38513;SDS011;24282;48.400;10.808;2023-05-19T03:12:31;6.80;;;2.83;;
38513;SDS011;24282;48.400;10.808;2023-05-19T03:14:58;5.57;;;2.70;;
38513;SDS011;24282;48.400;10.808;2023-05-19T03:17:24;6.27;;;2.50;;
38513;SDS011;24282;48.400;10.808;2023-05-19T03:19:50;5.77;;;2.47;;
38513;SDS011;24282;48.400;10.808;2023-05-19T03:22:16;5.20;;;2.30;;
38513;SDS011;24282;48.400;10.808;2023-05-19T03:24:45;6.77;;;2.93;;
38513;SDS011;24282;48.400;10.808;2023-05-19T03:27:12;5.10;;;3.20;;
38513;SDS011;24282;48.400;10.808;2023-05-19T03:29:38;4.93;;;2.37;;
38513;SDS011;24282;48.400;10.808;2023-05-19T03:32:03;4.27;;;2.17;;
38513;SDS011;24282;48.400;10.808;2023-05-19T03:34:29;5.87;;;2.30;;
38513;SDS011;24282;48.400;10.808;2023-05-19T03:36:56;3.97;;;2.33;;
38513;SDS011;24282;48.400;10.808;2023-05-19T03:39:22;5.33;;;2.73;;
38513;SDS011;24282;48.400;10.808;2023-05-19T03:41:48;3.40;;;2.00;;
38513;SDS011;24282;48.400;10.808;2023-05-19T03:44:14;5.63;;;2.90;;
38513;SDS011;24282;48.400;10.808;2023-05-19T03:46:40;3.93;;;2.10;;
38513;SDS011;24282;48.400;10.808;2023-05-19T03:49:40;5.40;;;2.70;;
38513;SDS011;24282;48.400;10.808;2023-05-19T03:52:32;5.87;;;2.40;;
38513;SDS011;24282;48.400;10.808;2023-05-19T03:55:07;4.43;;;2.60;;
38513;SDS011;24282;48.400;10.808;2023-05-19T03:57:33;6.63;;;3.03;;
38513;SDS011;24282;48.400;10.808;2023-05-19T03:59:59;4.70;;;2.17;;
38513;SDS011;24282;48.400;10.808;2023-05-19T04:02:25;5.20;;;2.13;;
38513;SDS011;24282;48.400;10.808;2023-05-19T04:04:50;6.70;;;2.60;;
38513;SDS011;24282;48.400;10.808;2023-05-19T04:07:16;4.23;;;2.40;;
38513;SDS011;24282;48.400;10.808;2023-05-19T04:09:42;4.73;;;2.33;;
38513;SDS011;24282;48.400;10.808;2023-05-19T04:12:07;5.40;;;2.60;;
38513;SDS011;24282;48.400;10.808;2023-05-19T04:14:33;7.13;;;2.70;;
38513;SDS011;24282;48.400;10.808;2023-05-19T04:16:59;7.10;;;2.80;;
38513;SDS011;24282;48.400;10.808;2023-05-19T04:19:25;4.77;;;2.50;;
38513;SDS011;24282;48.400;10.808;2023-05-19T04:21:53;6.70;;;2.50;;
38513;SDS011;24282;48.400;10.808;2023-05-19T04:24:19;5.10;;;2.57;;
38513;SDS011;24282;48.400;10.808;2023-05-19T04:26:45;4.67;;;2.50;;
38513;SDS011;24282;48.400;10.808;2023-05-19T04:29:13;4.43;;;2.43;;
38513;SDS011;24282;48.400;10.808;2023-05-19T04:31:42;5.87;;;2.17;;
38513;SDS011;24282;48.400;10.808;2023-05-19T04:34:08;3.93;;;2.27;;
38513;SDS011;24282;48.400;10.808;2023-05-19T04:36:35;4.93;;;2.43;;
38513;SDS011;24282;48.400;10.808;2023-05-19T04:39:02;4.83;;;2.50;;
38513;SDS011;24282;48.400;10.808;2023-05-19T04:41:31;5.23;;;2.17;;
38513;SDS011;24282;48.400;10.808;2023-05-19T04:44:05;4.85;;;2.15;;
38513;SDS011;24282;48.400;10.808;2023-05-19T04:46:33;5.33;;;2.43;;
38513;SDS011;24282;48.400;10.808;2023-05-19T04:48:59;6.47;;;2.40;;
38513;SDS011;24282;48.400;10.808;2023-05-19T04:51:26;6.27;;;2.33;;
38513;SDS011;24282;48.400;10.808;2023-05-19T04:53:56;5.83;;;2.43;;
38513;SDS011;24282;48.400;10.808;2023-05-19T04:56:22;5.00;;;2.30;;
38513;SDS011;24282;48.400;10.808;2023-05-19T04:58:48;6.50;;;2.77;;
38513;SDS011;24282;48.400;10.808;2023-05-19T05:01:15;4.20;;;2.60;;
38513;SDS011;24282;48.400;10.808;2023-05-19T05:03:41;5.13;;;2.57;;
38513;SDS011;24282;48.400;10.808;2023-05-19T05:06:09;4.30;;;2.50;;
38513;SDS011;24282;48.400;10.808;2023-05-19T05:08:36;4.63;;;2.57;;
38513;SDS011;24282;48.400;10.808;2023-05-19T05:11:04;4.13;;;2.30;;
38513;SDS011;24282;48.400;10.808;2023-05-19T05:13:31;5.83;;;2.63;;
38513;SDS011;24282;48.400;10.808;2023-05-19T05:15:57;6.33;;;2.57;;
38513;SDS011;24282;48.400;10.808;2023-05-19T05:18:24;4.37;;;2.30;;
38513;SDS011;24282;48.400;10.808;2023-05-19T05:20:51;4.27;;;2.13;;
38513;SDS011;24282;48.400;10.808;2023-05-19T05:23:18;5.03;;;2.23;;
38513;SDS011;24282;48.400;10.808;2023-05-19T05:25:46;4.87;;;2.30;;
38513;SDS011;24282;48.400;10.808;2023-05-19T05:28:13;4.93;;;2.43;;
38513;SDS011;24282;48.400;10.808;2023-05-19T05:30:40;6.17;;;2.50;;
38513;SDS011;24282;48.400;10.808;2023-05-19T05:33:06;4.37;;;2.10;;
38513;SDS011;24282;48.400;10.808;2023-05-19T05:35:36;4.90;;;2.47;;
38513;SDS011;24282;48.400;10.808;2023-05-19T05:38:03;6.00;;;2.00;;
38513;SDS011;24282;48.400;10.808;2023-05-19T05:40:29;6.43;;;2.43;;
38513;SDS011;24282;48.400;10.808;2023-05-19T05:42:55;5.67;;;2.50;;
38513;SDS011;24282;48.400;10.808;2023-05-19T05:45:24;4.90;;;2.53;;
38513;SDS011;24282;48.400;10.808;2023-05-19T05:47:51;5.50;;;2.77;;
38513;SDS011;24282;48.400;10.808;2023-05-19T05:50:17;3.67;;;2.30;;
38513;SDS011;24282;48.400;10.808;2023-05-19T05:52:44;5.17;;;2.37;;
38513;SDS011;24282;48.400;10.808;2023-05-19T05:55:12;4.63;;;2.63;;
38513;SDS011;24282;48.400;10.808;2023-05-19T05:57:39;4.53;;;2.30;;
38513;SDS011;24282;48.400;10.808;2023-05-19T06:00:08;4.90;;;2.73;;
38513;SDS011;24282;48.400;10.808;2023-05-19T06:02:47;6.55;;;2.65;;
38513;SDS011;24282;48.400;10.808;2023-05-19T06:05:18;4.00;;;2.30;;
38513;SDS011;24282;48.400;10.808;2023-05-19T06:07:45;4.47;;;2.73;;
38513;SDS011;24282;48.400;10.808;2023-05-19T06:10:16;4.57;;;2.43;;
38513;SDS011;24282;48.400;10.808;2023-05-19T06:12:42;3.87;;;2.50;;
38513;SDS011;24282;48.400;10.808;2023-05-19T06:15:09;5.70;;;3.00;;
38513;SDS011;24282;48.400;10.808;2023-05-19T06:17:50;5.20;;;3.10;;
38513;SDS011;24282;48.400;10.808;2023-05-19T06:20:16;4.00;;;2.60;;
38513;SDS011;24282;48.400;10.808;2023-05-19T06:22:42;3.90;;;2.37;;
38513;SDS011;24282;48.400;10.808;2023-05-19T06:25:09;5.43;;;2.53;;
38513;SDS011;24282;48.400;10.808;2023-05-19T06:27:34;4.97;;;2.30;;
38513;SDS011;24282;48.400;10.808;2023-05-19T06:30:01;4.47;;;2.10;;
38513;SDS011;24282;48.400;10.808;2023-05-19T06:32:32;3.97;;;2.70;;
38513;SDS011;24282;48.400;10.808;2023-05-19T06:35:00;4.57;;;2.83;;
38513;SDS011;24282;48.400;10.808;2023-05-19T06:37:26;6.60;;;3.17;;
38513;SDS011;24282;48.400;10.808;2023-05-19T06:39:52;8.17;;;3.73;;
38513;SDS011;24282;48.400;10.808;2023-05-19T06:42:18;5.73;;;3.10;;
38513;SDS011;24282;48.400;10.808;2023-05-19T06:45:06;4.50;;;3.03;;
38513;SDS011;24282;48.400;10.808;2023-05-19T06:47:32;5.97;;;2.93;;
38513;SDS011;24282;48.400;10.808;2023-05-19T06:49:58;6.10;;;2.93;;
38513;SDS011;24282;48.400;10.808;2023-05-19T06:52:28;4.67;;;2.60;;
38513;SDS011;24282;48.400;10.808;2023-05-19T06:54:55;6.00;;;2.83;;
38513;SDS011;24282;48.400;10.808;2023-05-19T06:57:21;4.80;;;2.60;;
38513;SDS011;24282;48.400;10.808;2023-05-19T06:59:46;6.13;;;2.93;;
38513;SDS011;24282;48.400;10.808;2023-05-19T07:02:13;6.47;;;2.60;;
38513;SDS011;24282;48.400;10.808;2023-05-19T07:04:38;4.73;;;2.73;;
38513;SDS011;24282;48.400;10.808;2023-05-19T07:07:05;4.87;;;2.80;;
38513;SDS011;24282;48.400;10.808;2023-05-19T07:09:32;5.77;;;2.73;;
38513;SDS011;24282;48.400;10.808;2023-05-19T07:11:58;5.27;;;2.70;;
38513;SDS011;24282;48.400;10.808;2023-05-19T07:14:24;4.30;;;2.30;;
38513;SDS011;24282;48.400;10.808;2023-05-19T07:16:50;5.00;;;2.67;;
38513;SDS011;24282;48.400;10.808;2023-05-19T07:19:16;4.80;;;2.77;;
38513;SDS011;24282;48.400;10.808;2023-05-19T07:21:46;4.70;;;2.47;;
38513;SDS011;24282;48.400;10.808;2023-05-19T07:24:12;3.63;;;2.40;;
38513;SDS011;24282;48.400;10.808;2023-05-19T07:26:38;5.80;;;2.77;;
38513;SDS011;24282;48.400;10.808;2023-05-19T07:29:05;3.30;;;2.30;;
38513;SDS011;24282;48.400;10.808;2023-05-19T07:31:31;4.83;;;2.80;;
38513;SDS011;24282;48.400;10.808;2023-05-19T07:33:57;3.53;;;2.30;;
38513;SDS011;24282;48.400;10.808;2023-05-19T07:36:23;3.73;;;2.23;;
38513;SDS011;24282;48.400;10.808;2023-05-19T07:38:48;4.40;;;2.33;;
38513;SDS011;24282;48.400;10.808;2023-05-19T07:41:14;4.73;;;2.50;;
38513;SDS011;24282;48.400;10.808;2023-05-19T07:43:40;5.13;;;2.30;;
38513;SDS011;24282;48.400;10.808;2023-05-19T07:46:07;4.23;;;2.13;;
38513;SDS011;24282;48.400;10.808;2023-05-19T07:48:33;4.93;;;2.30;;
38513;SDS011;24282;48.400;10.808;2023-05-19T07:50:58;3.70;;;2.53;;
38513;SDS011;24282;48.400;10.808;2023-05-19T07:53:24;4.70;;;2.63;;
38513;SDS011;24282;48.400;10.808;2023-05-19T07:55:50;5.17;;;2.40;;
38513;SDS011;24282;48.400;10.808;2023-05-19T07:58:16;3.60;;;2.17;;
38513;SDS011;24282;48.400;10.808;2023-05-19T08:00:41;4.57;;;3.10;;
38513;SDS011;24282;48.400;10.808;2023-05-19T08:03:08;5.23;;;2.77;;
38513;SDS011;24282;48.400;10.808;2023-05-19T08:05:37;5.17;;;3.00;;
38513;SDS011;24282;48.400;10.808;2023-05-19T08:08:02;4.63;;;2.67;;
38513;SDS011;24282;48.400;10.808;2023-05-19T08:10:28;5.40;;;3.23;;
38513;SDS011;24282;48.400;10.808;2023-05-19T08:12:54;6.33;;;3.67;;
38513;SDS011;24282;48.400;10.808;2023-05-19T08:15:20;7.27;;;3.33;;
38513;SDS011;24282;48.400;10.808;2023-05-19T08:17:46;4.50;;;2.70;;
38513;SDS011;24282;48.400;10.808;2023-05-19T08:20:11;5.57;;;3.00;;
38513;SDS011;24282;48.400;10.808;2023-05-19T08:22:37;6.27;;;2.80;;
38513;SDS011;24282;48.400;10.808;2023-05-19T08:25:03;4.60;;;2.70;;
38513;SDS011;24282;48.400;10.808;2023-05-19T08:27:30;5.63;;;3.27;;
38513;SDS011;24282;48.400;10.808;2023-05-19T08:29:56;5.47;;;2.97;;
38513;SDS011;24282;48.400;10.808;2023-05-19T08:32:22;4.03;;;2.30;;
38513;SDS011;24282;48.400;10.808;2023-05-19T08:34:48;4.70;;;2.80;;
38513;SDS011;24282;48.400;10.808;2023-05-19T08:37:14;5.80;;;2.80;;
38513;SDS011;24282;48.400;10.808;2023-05-19T08:39:40;4.57;;;2.47;;
38513;SDS011;24282;48.400;10.808;2023-05-19T08:42:05;5.43;;;2.97;;
38513;SDS011;24282;48.400;10.808;2023-05-19T08:44:36;5.13;;;2.47;;
38513;SDS011;24282;48.400;10.808;2023-05-19T08:47:02;6.33;;;3.90;;
38513;SDS011;24282;48.400;10.808;2023-05-19T08:49:39;5.37;;;3.60;;
38513;SDS011;24282;48.400;10.808;2023-05-19T08:57:26;6.60;;;2.70;;
38513;SDS011;24282;48.400;10.808;2023-05-19T08:59:53;4.00;;;2.73;;
38513;SDS011;24282;48.400;10.808;2023-05-19T09:02:20;7.17;;;2.87;;
38513;SDS011;24282;48.400;10.808;2023-05-19T09:04:46;4.83;;;2.67;;
38513;SDS011;24282;48.400;10.808;2023-05-19T09:07:13;4.10;;;2.50;;
38513;SDS011;24282;48.400;10.808;2023-05-19T09:09:40;4.77;;;3.00;;
38513;SDS011;24282;48.400;10.808;2023-05-19T09:12:11;7.43;;;2.73;;
38513;SDS011;24282;48.400;10.808;2023-05-19T09:14:37;3.70;;;2.57;;
38513;SDS011;24282;48.400;10.808;2023-05-19T09:17:03;4.23;;;2.60;;
38513;SDS011;24282;48.400;10.808;2023-05-19T09:19:30;4.77;;;2.70;;
38513;SDS011;24282;48.400;10.808;2023-05-19T09:21:59;4.50;;;2.87;;
38513;SDS011;24282;48.400;10.808;2023-05-19T09:24:27;4.57;;;2.77;;
38513;SDS011;24282;48.400;10.808;2023-05-19T09:26:54;4.32;;;2.70;;
38513;SDS011;24282;48.400;10.808;2023-05-19T09:29:21;6.75;;;3.42;;
38513;SDS011;24282;48.400;10.808;2023-05-19T09:34:18;5.65;;;3.22;;
38513;SDS011;24282;48.400;10.808;2023-05-19T09:36:46;4.97;;;2.58;;
38513;SDS011;24282;48.400;10.808;2023-05-19T09:39:19;3.80;;;2.38;;
38513;SDS011;24282;48.400;10.808;2023-05-19T09:41:46;3.60;;;2.37;;
38513;SDS011;24282;48.400;10.808;2023-05-19T09:46:50;3.35;;;2.75;;
38513;SDS011;24282;48.400;10.808;2023-05-19T09:49:18;3.13;;;1.90;;
38513;SDS011;24282;48.400;10.808;2023-05-19T09:51:45;3.20;;;2.10;;
38513;SDS011;24282;48.400;10.808;2023-05-19T09:54:15;3.70;;;2.35;;
38513;SDS011;24282;48.400;10.808;2023-05-19T09:56:41;4.10;;;2.50;;
38513;SDS011;24282;48.400;10.808;2023-05-19T09:59:07;5.63;;;2.22;;
38513;SDS011;24282;48.400;10.808;2023-05-19T10:01:33;4.93;;;2.10;;
38513;SDS011;24282;48.400;10.808;2023-05-19T10:04:00;2.90;;;1.77;;
38513;SDS011;24282;48.400;10.808;2023-05-19T10:06:28;3.53;;;2.47;;
38513;SDS011;24282;48.400;10.808;2023-05-19T10:08:54;6.78;;;3.10;;
38513;SDS011;24282;48.400;10.808;2023-05-19T10:11:21;4.53;;;2.70;;
38513;SDS011;24282;48.400;10.808;2023-05-19T10:13:49;5.60;;;3.05;;
38513;SDS011;24282;48.400;10.808;2023-05-19T10:16:15;4.68;;;3.00;;
38513;SDS011;24282;48.400;10.808;2023-05-19T10:18:42;4.63;;;3.17;;
38513;SDS011;24282;48.400;10.808;2023-05-19T10:21:08;4.93;;;3.13;;
38513;SDS011;24282;48.400;10.808;2023-05-19T10:23:36;4.63;;;2.85;;
38513;SDS011;24282;48.400;10.808;2023-05-19T10:26:02;5.00;;;2.77;;
38513;SDS011;24282;48.400;10.808;2023-05-19T10:28:33;4.70;;;2.80;;
38513;SDS011;24282;48.400;10.808;2023-05-19T10:31:01;3.88;;;2.40;;
38513;SDS011;24282;48.400;10.808;2023-05-19T10:33:46;3.60;;;2.17;;
38513;SDS011;24282;48.400;10.808;2023-05-19T10:39:10;5.50;;;3.42;;
38513;SDS011;24282;48.400;10.808;2023-05-19T10:47:28;4.43;;;2.92;;
38513;SDS011;24282;48.400;10.808;2023-05-19T10:49:54;5.75;;;2.90;;
38513;SDS011;24282;48.400;10.808;2023-05-19T10:52:22;3.80;;;2.20;;
38513;SDS011;24282;48.400;10.808;2023-05-19T10:57:23;4.78;;;2.38;;
38513;SDS011;24282;48.400;10.808;2023-05-19T10:59:56;4.72;;;2.65;;
38513;SDS011;24282;48.400;10.808;2023-05-19T11:05:07;3.97;;;2.50;;
38513;SDS011;24282;48.400;10.808;2023-05-19T11:07:42;3.72;;;2.38;;
38513;SDS011;24282;48.400;10.808;2023-05-19T11:10:09;5.13;;;2.95;;
38513;SDS011;24282;48.400;10.808;2023-05-19T11:12:38;3.22;;;2.13;;
38513;SDS011;24282;48.400;10.808;2023-05-19T11:15:13;5.57;;;2.15;;
38513;SDS011;24282;48.400;10.808;2023-05-19T11:17:39;2.75;;;1.98;;
38513;SDS011;24282;48.400;10.808;2023-05-19T11:20:18;2.90;;;1.90;;
38513;SDS011;24282;48.400;10.808;2023-05-19T11:26:01;3.85;;;2.13;;
38513;SDS011;24282;48.400;10.808;2023-05-19T11:28:27;4.57;;;2.25;;
38513;SDS011;24282;48.400;10.808;2023-05-19T11:30:55;3.58;;;2.13;;
38513;SDS011;24282;48.400;10.808;2023-05-19T11:33:22;4.07;;;2.10;;
38513;SDS011;24282;48.400;10.808;2023-05-19T11:35:53;2.53;;;1.80;;
38513;SDS011;24282;48.400;10.808;2023-05-19T11:38:22;3.50;;;1.90;;
38513;SDS011;24282;48.400;10.808;2023-05-19T11:40:48;3.70;;;2.13;;
38513;SDS011;24282;48.400;10.808;2023-05-19T11:43:16;3.83;;;2.03;;
38513;SDS011;24282;48.400;10.808;2023-05-19T11:45:42;2.87;;;1.60;;
38513;SDS011;24282;48.400;10.808;2023-05-19T11:48:11;3.35;;;2.03;;
38513;SDS011;24282;48.400;10.808;2023-05-19T11:50:39;4.72;;;2.63;;
38513;SDS011;24282;48.400;10.808;2023-05-19T11:53:06;4.63;;;2.50;;
38513;SDS011;24282;48.400;10.808;2023-05-19T11:55:32;4.28;;;2.42;;
38513;SDS011;24282;48.400;10.808;2023-05-19T11:57:58;4.55;;;2.30;;
38513;SDS011;24282;48.400;10.808;2023-05-19T12:00:26;3.57;;;2.27;;
38513;SDS011;24282;48.400;10.808;2023-05-19T12:02:52;3.67;;;2.03;;
38513;SDS011;24282;48.400;10.808;2023-05-19T12:05:24;3.67;;;2.22;;
38513;SDS011;24282;48.400;10.808;2023-05-19T12:07:51;3.72;;;2.00;;
38513;SDS011;24282;48.400;10.808;2023-05-19T12:10:20;4.70;;;2.30;;
38513;SDS011;24282;48.400;10.808;2023-05-19T12:12:47;5.18;;;2.30;;
38513;SDS011;24282;48.400;10.808;2023-05-19T12:15:17;2.95;;;1.80;;
38513;SDS011;24282;48.400;10.808;2023-05-19T12:17:49;4.75;;;2.30;;
38513;SDS011;24282;48.400;10.808;2023-05-19T12:20:16;4.43;;;2.28;;
38513;SDS011;24282;48.400;10.808;2023-05-19T12:22:44;4.38;;;2.40;;
38513;SDS011;24282;48.400;10.808;2023-05-19T12:25:11;2.95;;;2.20;;
38513;SDS011;24282;48.400;10.808;2023-05-19T12:27:38;4.70;;;2.22;;
38513;SDS011;24282;48.400;10.808;2023-05-19T12:30:03;4.55;;;2.15;;
38513;SDS011;24282;48.400;10.808;2023-05-19T12:32:32;3.38;;;2.30;;
38513;SDS011;24282;48.400;10.808;2023-05-19T12:35:00;5.07;;;2.53;;
38513;SDS011;24282;48.400;10.808;2023-05-19T12:37:28;3.00;;;1.83;;
38513;SDS011;24282;48.400;10.808;2023-05-19T12:39:54;3.28;;;2.10;;
38513;SDS011;24282;48.400;10.808;2023-05-19T12:42:20;7.22;;;2.42;;
38513;SDS011;24282;48.400;10.808;2023-05-19T12:44:48;4.25;;;2.42;;
38513;SDS011;24282;48.400;10.808;2023-05-19T12:47:16;3.38;;;2.10;;
38513;SDS011;24282;48.400;10.808;2023-05-19T12:52:43;4.15;;;2.05;;
38513;SDS011;24282;48.400;10.808;2023-05-19T12:55:15;3.20;;;2.20;;
38513;SDS011;24282;48.400;10.808;2023-05-19T12:57:42;3.63;;;1.80;;
38513;SDS011;24282;48.400;10.808;2023-05-19T13:00:12;4.20;;;2.40;;
38513;SDS011;24282;48.400;10.808;2023-05-19T13:05:26;3.33;;;1.90;;
38513;SDS011;24282;48.400;10.808;2023-05-19T13:07:53;3.40;;;2.00;;
38513;SDS011;24282;48.400;10.808;2023-05-19T13:10:19;4.63;;;2.05;;
38513;SDS011;24282;48.400;10.808;2023-05-19T13:12:45;3.72;;;2.40;;
38513;SDS011;24282;48.400;10.808;2023-05-19T13:15:11;2.92;;;1.65;;
38513;SDS011;24282;48.400;10.808;2023-05-19T13:17:36;2.33;;;1.60;;
38513;SDS011;24282;48.400;10.808;2023-05-19T13:20:02;3.72;;;1.83;;
38513;SDS011;24282;48.400;10.808;2023-05-19T13:22:28;4.65;;;2.10;;
38513;SDS011;24282;48.400;10.808;2023-05-19T13:24:54;2.35;;;1.50;;
38513;SDS011;24282;48.400;10.808;2023-05-19T13:27:23;3.28;;;1.80;;
38513;SDS011;24282;48.400;10.808;2023-05-19T13:29:49;2.80;;;1.90;;
38513;SDS011;24282;48.400;10.808;2023-05-19T13:32:15;2.85;;;1.90;;
38513;SDS011;24282;48.400;10.808;2023-05-19T13:34:41;3.53;;;2.00;;
38513;SDS011;24282;48.400;10.808;2023-05-19T13:37:06;3.33;;;1.45;;
38513;SDS011;24282;48.400;10.808;2023-05-19T13:39:36;3.50;;;1.98;;
38513;SDS011;24282;48.400;10.808;2023-05-19T13:42:01;2.97;;;1.77;;
38513;SDS011;24282;48.400;10.808;2023-05-19T13:44:29;3.20;;;2.03;;
38513;SDS011;24282;48.400;10.808;2023-05-19T13:46:54;4.43;;;2.35;;
38513;SDS011;24282;48.400;10.808;2023-05-19T13:49:20;3.25;;;1.80;;
38513;SDS011;24282;48.400;10.808;2023-05-19T13:51:46;4.55;;;1.67;;
38513;SDS011;24282;48.400;10.808;2023-05-19T13:54:12;2.72;;;1.60;;
38513;SDS011;24282;48.400;10.808;2023-05-19T13:56:38;3.03;;;2.05;;
38513;SDS011;24282;48.400;10.808;2023-05-19T13:59:04;2.80;;;1.35;;
38513;SDS011;24282;48.400;10.808;2023-05-19T14:01:29;2.88;;;1.60;;
38513;SDS011;24282;48.400;10.808;2023-05-19T14:03:55;2.10;;;1.48;;
38513;SDS011;24282;48.400;10.808;2023-05-19T14:06:21;2.05;;;1.55;;
38513;SDS011;24282;48.400;10.808;2023-05-19T14:08:47;2.53;;;1.48;;
38513;SDS011;24282;48.400;10.808;2023-05-19T14:11:18;2.75;;;1.52;;
38513;SDS011;24282;48.400;10.808;2023-05-19T14:13:48;3.15;;;1.85;;
38513;SDS011;24282;48.400;10.808;2023-05-19T14:16:14;2.70;;;1.80;;
38513;SDS011;24282;48.400;10.808;2023-05-19T14:18:40;2.90;;;1.63;;
38513;SDS011;24282;48.400;10.808;2023-05-19T14:21:06;3.50;;;1.77;;
38513;SDS011;24282;48.400;10.808;2023-05-19T14:23:32;2.67;;;1.27;;
38513;SDS011;24282;48.400;10.808;2023-05-19T14:25:58;3.03;;;1.40;;
38513;SDS011;24282;48.400;10.808;2023-05-19T14:28:24;2.90;;;1.63;;
38513;SDS011;24282;48.400;10.808;2023-05-19T14:30:50;3.13;;;1.73;;
38513;SDS011;24282;48.400;10.808;2023-05-19T14:33:16;2.15;;;1.48;;
38513;SDS011;24282;48.400;10.808;2023-05-19T14:35:43;2.65;;;1.60;;
38513;SDS011;24282;48.400;10.808;2023-05-19T14:38:09;2.63;;;1.70;;
38513;SDS011;24282;48.400;10.808;2023-05-19T14:40:35;2.88;;;1.85;;
38513;SDS011;24282;48.400;10.808;2023-05-19T14:43:02;2.05;;;1.23;;
38513;SDS011;24282;48.400;10.808;2023-05-19T14:45:28;2.22;;;1.40;;
38513;SDS011;24282;48.400;10.808;2023-05-19T14:47:53;2.30;;;1.40;;
38513;SDS011;24282;48.400;10.808;2023-05-19T14:50:19;2.97;;;1.73;;
38513;SDS011;24282;48.400;10.808;2023-05-19T14:52:45;2.92;;;1.65;;
38513;SDS011;24282;48.400;10.808;2023-05-19T14:55:11;3.05;;;1.80;;
38513;SDS011;24282;48.400;10.808;2023-05-19T14:57:36;3.20;;;2.05;;
38513;SDS011;24282;48.400;10.808;2023-05-19T15:00:02;2.10;;;1.25;;
38513;SDS011;24282;48.400;10.808;2023-05-19T15:02:28;2.33;;;1.20;;
38513;SDS011;24282;48.400;10.808;2023-05-19T15:04:54;2.65;;;1.40;;
38513;SDS011;24282;48.400;10.808;2023-05-19T15:07:20;2.33;;;1.50;;
38513;SDS011;24282;48.400;10.808;2023-05-19T15:09:46;2.03;;;1.27;;
38513;SDS011;24282;48.400;10.808;2023-05-19T15:12:12;2.17;;;1.30;;
38513;SDS011;24282;48.400;10.808;2023-05-19T15:14:38;2.50;;;1.60;;
38513;SDS011;24282;48.400;10.808;2023-05-19T15:17:03;3.25;;;1.55;;
38513;SDS011;24282;48.400;10.808;2023-05-19T15:19:29;2.85;;;1.65;;
38513;SDS011;24282;48.400;10.808;2023-05-19T15:21:55;2.95;;;1.75;;
38513;SDS011;24282;48.400;10.808;2023-05-19T15:24:20;1.67;;;1.20;;